Buoy 43519

sailwx.info

Track history (hours):
 
Tides and Currents Weather Stations Pressure Air Temp Water Temp Dewpoint Dewpoint Depression Visibility Wind Speed Wind Dir Waves Ship Positions

Drifting buoy 43519

Last reported at 2015-Jul-28 08:00 UTC. Time now 2015-Jul-29 04:56 UTC.
Position N 26°36' W 117°18'.

Barometer 1014.0 mb
Water temperature 23.2 ° C

Date/timePositionNaut miles runAvg speedWind from/ knotsBaromVisibWave heightAir tempDewpointWater temp
2015-Jul-28 08:00N 26°36' W 117°18'3 0.8 1014.0 23.2
2015-Jul-28 04:00N 26°37' W 117°21'0 0.0 1014.0 23.3
2015-Jul-28 03:00N 26°37' W 117°21'0 0.0 1013.5 23.3
2015-Jul-28 02:00N 26°37' W 117°21'12 0.9 1012.9 23.3
2015-Jul-27 12:00N 26°44' W 117°32'3 1.1 1013.7 23.3
2015-Jul-27 09:00N 26°46' W 117°35'4 0.4 1013.9 23.3
2015-Jul-26 23:00N 26°50' W 117°37'0 0.0 1013.9 23.9
2015-Jul-26 22:00N 26°50' W 117°37'5 4.5 1014.5 23.8
2015-Jul-26 21:00N 26°54' W 117°39'0 0.0 1015.2 23.8
2015-Jul-26 18:00N 26°54' W 117°39'2 1.5 1015.2 23.5
2015-Jul-26 17:00N 26°54' W 117°41'0 0.1 1015.5 23.5
2015-Jul-26 16:00N 26°54' W 117°41'6 2.1 1015.5 23.4
2015-Jul-26 13:00N 26°57' W 117°47'0 0.0 1014.0 23.4
2015-Jul-26 12:00N 26°57' W 117°47'1 0.7 1013.4 23.4
2015-Jul-26 10:00N 26°58' W 117°48'2 0.4 1013.5 23.5
2015-Jul-26 05:00N 26°59' W 117°50'1 0.3 1015.2 23.6
2015-Jul-26 03:00N 26°60' W 117°50'0 0.0 1014.2 23.8
2015-Jul-26 02:00N 26°60' W 117°50'2 2.1 1014.0 24.1
2015-Jul-26 01:00N 27°02' W 117°51'0 0.0 1013.7 24.2
2015-Jul-25 23:00N 27°02' W 117°51'0 0.4 1014.7 24.2
2015-Jul-25 22:00N 27°02' W 117°51'4 0.9 1015.2 24.1
2015-Jul-25 17:00N 27°06' W 117°52'2 0.7 1017.0 23.3
2015-Jul-25 14:00N 27°08' W 117°53'6 0.7 1016.4 23.2
2015-Jul-25 05:00N 27°10' W 117°60'0 0.0 1017.2 23.2
2015-Jul-25 04:00N 27°10' W 117°60'0 0.4 1016.7 23.3
2015-Jul-25 03:00N 27°10' W 118°00'0 0.2 1016.0 23.3
2015-Jul-25 02:00N 27°10' W 118°00'1 0.3 1015.7 23.3
2015-Jul-25 00:00N 27°10' W 117°60'2 0.3 1016.0 23.5
2015-Jul-24 17:00N 27°10' W 117°58'7 0.3 1017.5 23.4
2015-Jul-23 21:00N 27°15' W 118°03'0 0.0 1014.9 24.8
2015-Jul-23 20:00N 27°15' W 118°03'2 0.4 1015.2 24.5
2015-Jul-23 14:00N 27°15' W 118°01'6 0.6 1013.7 23.2
2015-Jul-23 04:00N 27°19' W 118°05'5 0.3 1012.7 23.8
2015-Jul-22 14:00N 27°15' W 118°06'6 0.4 1012.4 22.9
2015-Jul-22 01:00N 27°18' W 118°12'2 0.8 1012.2 23.4
2015-Jul-21 23:00N 27°17' W 118°13'4 0.4 1013.0 24.0
2015-Jul-21 14:00N 27°13' W 118°13'1 0.2 1014.4 22.3
2015-Jul-21 10:00N 27°14' W 118°12'3 0.5 1014.7 22.4
2015-Jul-21 05:00N 27°16' W 118°12'4 1.0 1015.2 22.7
2015-Jul-21 01:00N 27°17' W 118°17'3 0.7 1014.5 23.0
2015-Jul-20 21:00N 27°16' W 118°19'2 0.7 1016.2 23.0
2015-Jul-20 18:00N 27°14' W 118°20'1 0.6 1016.9 22.4
2015-Jul-20 17:00N 27°13' W 118°20'0 0.0 1016.5 22.0
2015-Jul-20 16:00N 27°13' W 118°20'1 1.2 1016.4 21.9
2015-Jul-20 15:00N 27°12' W 118°20'1 0.6 1016.2 21.9
2015-Jul-20 14:00N 27°12' W 118°21'2 0.6 1015.5 21.9
2015-Jul-20 10:00N 27°11' W 118°18'4 0.6 1015.0 21.9
2015-Jul-20 02:00N 27°14' W 118°22'0 0.0 1013.5 21.9
2015-Jul-20 00:00N 27°14' W 118°22'5 1.8 1013.2 21.9
2015-Jul-19 21:00N 27°12' W 118°28'7 0.4 1013.2 21.9
2015-Jul-19 05:00N 27°06' W 118°32'   1006.9 21.8
Track history (hours):
 
Tides and Currents Weather Stations Pressure Air Temp Water Temp Dewpoint Dewpoint Depression Visibility Wind Speed Wind Dir Waves Ship Positions

Drifting buoy 43519

Last reported at 2015-Jul-28 08:00 UTC. Time now 2015-Jul-29 04:56 UTC.
Position N 26°36' W 117°18'.

Barometer 1014.0 mb
Water temperature 23.2 ° C

Date/timePositionNaut miles runAvg speedWind from/ knotsBaromVisibWave heightAir tempDewpointWater temp
2015-Jul-28 08:00N 26°36' W 117°18'3 0.8 1014.0 23.2
2015-Jul-28 04:00N 26°37' W 117°21'0 0.0 1014.0 23.3
2015-Jul-28 03:00N 26°37' W 117°21'0 0.0 1013.5 23.3
2015-Jul-28 02:00N 26°37' W 117°21'12 0.9 1012.9 23.3
2015-Jul-27 12:00N 26°44' W 117°32'3 1.1 1013.7 23.3
2015-Jul-27 09:00N 26°46' W 117°35'4 0.4 1013.9 23.3
2015-Jul-26 23:00N 26°50' W 117°37'0 0.0 1013.9 23.9
2015-Jul-26 22:00N 26°50' W 117°37'5 4.5 1014.5 23.8
2015-Jul-26 21:00N 26°54' W 117°39'0 0.0 1015.2 23.8
2015-Jul-26 18:00N 26°54' W 117°39'2 1.5 1015.2 23.5
2015-Jul-26 17:00N 26°54' W 117°41'0 0.1 1015.5 23.5
2015-Jul-26 16:00N 26°54' W 117°41'6 2.1 1015.5 23.4
2015-Jul-26 13:00N 26°57' W 117°47'0 0.0 1014.0 23.4
2015-Jul-26 12:00N 26°57' W 117°47'1 0.7 1013.4 23.4
2015-Jul-26 10:00N 26°58' W 117°48'2 0.4 1013.5 23.5
2015-Jul-26 05:00N 26°59' W 117°50'1 0.3 1015.2 23.6
2015-Jul-26 03:00N 26°60' W 117°50'0 0.0 1014.2 23.8
2015-Jul-26 02:00N 26°60' W 117°50'2 2.1 1014.0 24.1
2015-Jul-26 01:00N 27°02' W 117°51'0 0.0 1013.7 24.2
2015-Jul-25 23:00N 27°02' W 117°51'0 0.4 1014.7 24.2
2015-Jul-25 22:00N 27°02' W 117°51'4 0.9 1015.2 24.1
2015-Jul-25 17:00N 27°06' W 117°52'2 0.7 1017.0 23.3
2015-Jul-25 14:00N 27°08' W 117°53'6 0.7 1016.4 23.2
2015-Jul-25 05:00N 27°10' W 117°60'0 0.0 1017.2 23.2
2015-Jul-25 04:00N 27°10' W 117°60'0 0.4 1016.7 23.3
2015-Jul-25 03:00N 27°10' W 118°00'0 0.2 1016.0 23.3
2015-Jul-25 02:00N 27°10' W 118°00'1 0.3 1015.7 23.3
2015-Jul-25 00:00N 27°10' W 117°60'2 0.3 1016.0 23.5
2015-Jul-24 17:00N 27°10' W 117°58'7 0.3 1017.5 23.4
2015-Jul-23 21:00N 27°15' W 118°03'0 0.0 1014.9 24.8
2015-Jul-23 20:00N 27°15' W 118°03'2 0.4 1015.2 24.5
2015-Jul-23 14:00N 27°15' W 118°01'6 0.6 1013.7 23.2
2015-Jul-23 04:00N 27°19' W 118°05'5 0.3 1012.7 23.8
2015-Jul-22 14:00N 27°15' W 118°06'6 0.4 1012.4 22.9
2015-Jul-22 01:00N 27°18' W 118°12'2 0.8 1012.2 23.4
2015-Jul-21 23:00N 27°17' W 118°13'4 0.4 1013.0 24.0
2015-Jul-21 14:00N 27°13' W 118°13'1 0.2 1014.4 22.3
2015-Jul-21 10:00N 27°14' W 118°12'3 0.5 1014.7 22.4
2015-Jul-21 05:00N 27°16' W 118°12'4 1.0 1015.2 22.7
2015-Jul-21 01:00N 27°17' W 118°17'3 0.7 1014.5 23.0
2015-Jul-20 21:00N 27°16' W 118°19'2 0.7 1016.2 23.0
2015-Jul-20 18:00N 27°14' W 118°20'1 0.6 1016.9 22.4
2015-Jul-20 17:00N 27°13' W 118°20'0 0.0 1016.5 22.0
2015-Jul-20 16:00N 27°13' W 118°20'1 1.2 1016.4 21.9
2015-Jul-20 15:00N 27°12' W 118°20'1 0.6 1016.2 21.9
2015-Jul-20 14:00N 27°12' W 118°21'2 0.6 1015.5 21.9
2015-Jul-20 10:00N 27°11' W 118°18'4 0.6 1015.0 21.9
2015-Jul-20 02:00N 27°14' W 118°22'0 0.0 1013.5 21.9
2015-Jul-20 00:00N 27°14' W 118°22'5 1.8 1013.2 21.9
2015-Jul-19 21:00N 27°12' W 118°28'7 0.4 1013.2 21.9
2015-Jul-19 05:00N 27°06' W 118°32'   1006.9 21.8

Dump ship's entire track history